Time;durP1;ratioP1;P1;durP2;ratioP2;P2;SDS_P1;SDS_P2;PMS_P1;PMS_P2;Temp;Humidity;BMP_temperature;BMP_pressure;BME280_temperature;BME280_humidity;BME280_pressure;Samples;Min_cycle;Max_cycle;Signal;HPM_P1;HPM_P2
2021/08/10 00:02:17;;;;;;;0.90;0.90;;;;;;;15.18;78.85;101010.13;4965982;28;20043;-86
2021/08/10 00:04:43;;;;;;;1.15;0.80;;;;;;;15.09;79.58;101012.97;4966612;28;20480;-87
2021/08/10 00:07:11;;;;;;;1.67;1.13;;;;;;;15.05;79.75;101006.91;4970198;28;20055;-87
2021/08/10 00:09:38;;;;;;;1.50;1.40;;;;;;;15.05;79.75;100998.13;4968686;28;20058;-87
2021/08/10 00:12:05;;;;;;;1.17;1.08;;;;;;;15.04;79.78;101004.31;4997910;28;20042;-83
2021/08/10 00:14:32;;;;;;;2.45;1.05;;;;;;;15.03;79.96;101005.19;4983269;28;20054;-85
2021/08/10 00:17:05;;;;;;;1.95;1.23;;;;;;;15.02;79.94;100999.06;4964054;28;20051;-89
2021/08/10 00:19:32;;;;;;;2.03;1.10;;;;;;;15.00;80.23;101000.00;4968525;28;20486;-85
2021/08/10 00:21:59;;;;;;;0.90;0.90;;;;;;;14.95;80.17;100996.59;4980011;28;20050;-84
2021/08/10 00:24:26;;;;;;;1.55;0.90;;;;;;;14.88;80.80;100999.34;4966943;28;20047;-85
2021/08/10 00:26:55;;;;;;;2.05;1.60;;;;;;;14.85;80.81;100993.31;4963904;28;20058;-84
2021/08/10 00:29:24;;;;;;;1.40;1.30;;;;;;;14.85;81.10;100995.94;4984535;28;20104;-85
2021/08/10 00:31:51;;;;;;;1.35;1.10;;;;;;;14.81;81.01;100997.78;4962779;28;20055;-83
2021/08/10 00:34:18;;;;;;;10.13;3.10;;;;;;;14.77;81.50;100998.75;4977829;28;20077;-82
2021/08/10 00:36:47;;;;;;;0.98;0.93;;;;;;;14.74;81.47;100995.28;4964928;28;20050;-87
2021/08/10 00:39:14;;;;;;;1.42;1.00;;;;;;;14.72;81.64;100995.34;4965083;28;20401;-85
2021/08/10 00:41:42;;;;;;;1.20;1.10;;;;;;;14.67;81.77;100994.56;4981298;28;20046;-87
2021/08/10 00:44:10;;;;;;;3.45;1.23;;;;;;;14.65;82.12;100994.59;4980155;28;20038;-87
2021/08/10 00:46:37;;;;;;;1.35;1.00;;;;;;;14.63;82.26;100996.34;4964820;28;20064;-87
2021/08/10 00:49:04;;;;;;;1.83;1.15;;;;;;;14.65;82.11;100993.72;4979611;28;20046;-87
2021/08/10 00:51:30;;;;;;;0.88;0.85;;;;;;;14.61;82.29;100997.28;4979149;28;20058;-85
2021/08/10 00:54:03;;;;;;;1.85;1.08;;;;;;;14.57;82.55;100991.19;4967046;28;20049;-88
2021/08/10 00:56:33;;;;;;;1.40;0.80;;;;;;;14.54;82.64;100988.63;4993030;28;20038;-87
2021/08/10 00:59:01;;;;;;;0.60;0.60;;;;;;;14.49;82.62;100991.34;4967513;28;20053;-87
2021/08/10 01:01:31;;;;;;;2.05;1.00;;;;;;;14.46;83.19;100993.19;4979022;28;20042;-87
2021/08/10 01:03:58;;;;;;;2.85;1.17;;;;;;;14.42;83.36;100996.75;4995690;28;20047;-87
2021/08/10 01:06:48;;;;;;;1.02;0.90;;;;;;;14.39;83.59;100984.53;4980991;28;20050;-84
2021/08/10 01:09:56;;;;;;;2.22;1.30;;;;;;;14.35;83.67;100986.38;4982219;28;20057;-84
2021/08/10 01:13:00;;;;;;;1.45;1.23;;;;;;;14.29;84.16;100994.38;4982184;28;20053;-85
2021/08/10 01:15:59;;;;;;;2.50;0.93;;;;;;;14.22;84.17;100987.47;4963119;28;20056;-88
2021/08/10 01:18:31;;;;;;;2.47;1.20;;;;;;;14.16;84.49;100990.25;4969771;28;20057;-85
2021/08/10 01:21:11;;;;;;;1.65;1.17;;;;;;;14.14;84.79;100984.97;4980815;28;21158;-84
2021/08/10 01:23:38;;;;;;;1.00;0.93;;;;;;;14.12;84.80;100984.16;4985149;28;20118;-86
2021/08/10 01:26:30;;;;;;;1.52;1.30;;;;;;;14.07;85.26;100989.50;4961861;28;20070;-86
2021/08/10 01:29:30;;;;;;;3.50;1.35;;;;;;;14.03;85.71;100987.81;4974388;28;20113;-88
2021/08/10 01:32:03;;;;;;;1.48;1.17;;;;;;;14.00;85.92;100995.78;4964570;28;20129;-86
2021/08/10 01:34:42;;;;;;;1.67;1.40;;;;;;;13.98;86.08;100989.66;4978374;28;20042;-87
2021/08/10 01:37:20;;;;;;;2.00;1.40;;;;;;;13.95;86.08;100994.09;4981397;28;20054;-84
2021/08/10 01:39:52;;;;;;;2.90;1.17;;;;;;;13.92;86.41;100992.41;4992849;28;20126;-86
2021/08/10 01:42:20;;;;;;;3.58;1.20;;;;;;;13.92;86.48;100987.13;4978281;28;20106;-85
2021/08/10 01:44:52;;;;;;;1.13;0.98;;;;;;;13.96;86.39;100980.94;4980000;28;20057;-87
2021/08/10 01:47:20;;;;;;;2.97;1.27;;;;;;;13.99;86.24;100972.13;4993819;28;20062;-87
2021/08/10 01:49:48;;;;;;;1.55;1.45;;;;;;;14.05;86.35;100978.16;4979068;28;20050;-86
2021/08/10 01:52:22;;;;;;;1.58;1.20;;;;;;;14.11;85.67;100969.25;4979787;28;20043;-85
2021/08/10 01:54:50;;;;;;;2.33;1.30;;;;;;;14.16;85.24;100972.69;4978556;28;20733;-86
2021/08/10 01:57:18;;;;;;;5.13;1.75;;;;;;;14.22;85.11;100974.31;4965971;28;20054;-87
2021/08/10 01:59:49;;;;;;;1.45;1.05;;;;;;;14.29;84.90;100975.94;4963155;28;20939;-87
2021/08/10 02:02:16;;;;;;;2.20;1.20;;;;;;;14.33;84.51;100984.66;4965567;28;20085;-88
2021/08/10 02:04:47;;;;;;;1.50;1.00;;;;;;;14.37;84.23;100974.03;4976727;28;20069;-85
2021/08/10 02:07:14;;;;;;;1.45;1.05;;;;;;;14.41;84.04;100984.50;4993160;28;20054;-86
2021/08/10 02:09:44;;;;;;;1.45;1.17;;;;;;;14.45;83.86;100984.41;4965751;28;20101;-84
2021/08/10 02:12:12;;;;;;;3.47;1.35;;;;;;;14.47;83.66;100981.75;4976424;28;20070;-84
2021/08/10 02:14:40;;;;;;;3.10;2.28;;;;;;;14.49;83.73;100978.19;4978224;28;20141;-86
2021/08/10 02:17:09;;;;;;;2.83;1.30;;;;;;;14.52;83.96;100982.50;4977842;28;20541;-85
2021/08/10 02:19:36;;;;;;;5.18;2.17;;;;;;;14.50;83.73;100972.00;4963060;28;20059;-86
2021/08/10 02:22:11;;;;;;;3.72;1.75;;;;;;;14.52;83.88;100972.88;4977855;28;20981;-88
2021/08/10 02:24:46;;;;;;;3.08;1.50;;;;;;;14.54;84.12;100972.81;4974624;28;20501;-86
2021/08/10 02:27:26;;;;;;;3.88;1.98;;;;;;;14.56;83.65;100973.66;4993254;28;20073;-85
2021/08/10 02:29:55;;;;;;;2.20;1.95;;;;;;;14.59;83.79;100976.25;4970332;28;20043;-87
2021/08/10 02:32:26;;;;;;;3.53;2.30;;;;;;;14.62;83.89;100977.94;4980600;28;20497;-87
2021/08/10 02:34:54;;;;;;;2.25;1.85;;;;;;;14.64;83.88;100966.50;4991467;28;20116;-85
2021/08/10 02:37:23;;;;;;;2.30;2.10;;;;;;;14.63;84.03;100967.38;4978193;28;20501;-87
2021/08/10 02:39:52;;;;;;;1.70;1.30;;;;;;;14.66;84.01;100969.97;4976441;28;20093;-87
2021/08/10 02:42:20;;;;;;;1.95;1.75;;;;;;;14.68;84.15;100975.22;4979589;28;20218;-84
2021/08/10 02:44:49;;;;;;;4.20;1.40;;;;;;;14.72;84.22;100979.53;4961164;28;20057;-84
2021/08/10 02:47:18;;;;;;;1.70;1.52;;;;;;;14.76;84.14;100980.31;4976486;28;20061;-86
2021/08/10 02:49:45;;;;;;;3.50;1.55;;;;;;;14.79;84.07;100977.63;4976519;28;20050;-86
2021/08/10 02:52:13;;;;;;;1.75;1.40;;;;;;;14.79;84.12;100970.56;4979691;28;20049;-87
2021/08/10 02:54:42;;;;;;;2.90;1.33;;;;;;;14.80;84.22;100972.31;4975688;28;20078;-86
2021/08/10 02:57:26;;;;;;;1.33;1.20;;;;;;;14.81;84.25;100965.25;4963253;28;20152;-87
2021/08/10 03:00:01;;;;;;;;;;;;;;;14.83;84.29;100969.59;4971725;28;20082;-87
2021/08/10 03:02:35;;;;;;;0.88;0.88;;;;;;;14.88;84.12;100975.63;4992806;28;19925;-85
2021/08/10 03:05:09;;;;;;;1.40;1.30;;;;;;;14.93;84.26;100980.81;4965929;28;20054;-86
2021/08/10 03:07:42;;;;;;;1.88;1.45;;;;;;;14.98;84.14;100975.44;4983206;28;20128;-84
2021/08/10 03:10:10;;;;;;;2.22;1.08;;;;;;;15.02;84.09;100985.03;4994064;28;20133;-87
2021/08/10 03:12:42;;;;;;;2.78;1.40;;;;;;;15.04;84.23;100989.38;4981064;28;20058;-85
2021/08/10 03:15:10;;;;;;;1.25;1.13;;;;;;;15.02;84.47;100983.25;4977425;28;20129;-87
2021/08/10 03:17:40;;;;;;;3.35;1.20;;;;;;;15.02;84.76;100987.66;4965608;28;20061;-87
2021/08/10 03:20:09;;;;;;;1.88;1.00;;;;;;;14.99;84.96;100985.09;4979442;28;20081;-86
2021/08/10 03:22:38;;;;;;;1.33;1.05;;;;;;;14.97;85.04;100995.66;4962812;28;20050;-84
2021/08/10 03:25:09;;;;;;;1.10;1.00;;;;;;;14.96;85.40;100987.78;4978778;28;20051;-85
2021/08/10 03:27:37;;;;;;;0.90;0.75;;;;;;;14.95;85.13;100994.81;4964947;28;20137;-83
2021/08/10 03:30:06;;;;;;;1.27;0.95;;;;;;;14.94;85.64;100985.19;4981751;28;20065;-83
2021/08/10 03:32:35;;;;;;;3.00;1.17;;;;;;;14.91;85.73;100981.75;4963724;28;20405;-85
2021/08/10 03:35:04;;;;;;;2.03;1.10;;;;;;;14.87;86.00;100983.59;4979546;28;20117;-86
2021/08/10 03:37:32;;;;;;;3.22;1.23;;;;;;;14.83;86.24;100984.56;4965381;28;20046;-85
2021/08/10 03:40:00;;;;;;;1.42;0.85;;;;;;;14.81;86.38;100983.72;4981126;28;20050;-84
2021/08/10 03:42:30;;;;;;;1.73;0.90;;;;;;;14.79;86.52;100981.09;4997230;28;20051;-84
2021/08/10 03:45:00;;;;;;;3.10;0.90;;;;;;;14.79;86.55;100986.38;4987637;28;20114;-86
2021/08/10 03:47:29;;;;;;;1.17;1.02;;;;;;;14.76;86.57;100978.56;4964512;28;20121;-85
2021/08/10 03:49:57;;;;;;;1.50;1.15;;;;;;;14.75;86.80;100968.06;4964534;28;20054;-84
2021/08/10 03:52:27;;;;;;;3.55;1.13;;;;;;;14.73;87.11;100962.78;4962446;28;20105;-85
2021/08/10 03:54:53;;;;;;;1.00;0.80;;;;;;;14.68;87.27;100972.59;4980440;28;20529;-83
2021/08/10 03:57:22;;;;;;;1.15;1.05;;;;;;;14.65;87.60;100972.63;4963149;28;20057;-85
2021/08/10 03:59:54;;;;;;;1.67;1.17;;;;;;;14.66;88.03;100977.00;4980688;28;20522;-83
2021/08/10 04:02:24;;;;;;;1.27;1.00;;;;;;;14.65;87.91;100972.63;4994250;28;20581;-87
2021/08/10 04:04:55;;;;;;;0.88;0.80;;;;;;;14.64;88.15;100973.53;4980095;28;20547;-85
2021/08/10 04:07:26;;;;;;;2.03;1.23;;;;;;;14.63;88.06;100974.41;4964461;28;20055;-83
2021/08/10 04:09:53;;;;;;;2.80;0.90;;;;;;;14.62;88.15;100975.31;4968464;28;20075;-85
2021/08/10 04:12:21;;;;;;;1.38;0.80;;;;;;;14.62;88.22;100968.25;4963236;28;20494;-84
2021/08/10 04:14:48;;;;;;;1.42;1.08;;;;;;;14.60;88.07;100972.72;4962477;28;20481;-82
2021/08/10 04:17:17;;;;;;;1.27;1.13;;;;;;;14.61;88.30;100968.28;4976443;28;20133;-83
2021/08/10 04:19:48;;;;;;;1.30;1.02;;;;;;;14.61;88.34;100965.66;4959234;28;20161;-84
2021/08/10 04:22:16;;;;;;;0.93;0.90;;;;;;;14.61;88.37;100968.28;4964647;28;20046;-83
2021/08/10 04:24:44;;;;;;;1.55;1.20;;;;;;;14.61;88.26;100963.03;4976444;28;20058;-85
2021/08/10 04:27:11;;;;;;;1.67;1.10;;;;;;;14.61;88.20;100963.03;4995609;28;20046;-84
2021/08/10 04:29:38;;;;;;;1.45;1.02;;;;;;;14.56;88.14;100955.19;4978090;28;20070;-85
2021/08/10 04:32:07;;;;;;;1.08;0.82;;;;;;;14.56;88.44;100965.75;4963981;28;20160;-83
2021/08/10 04:34:34;;;;;;;1.40;0.80;;;;;;;14.54;88.33;100970.19;4979686;28;20970;-84
2021/08/10 04:37:01;;;;;;;1.92;1.35;;;;;;;14.54;88.31;100973.69;4976703;28;20109;-83
2021/08/10 04:39:28;;;;;;;2.55;1.30;;;;;;;14.60;88.26;100967.44;4979123;28;20173;-85
2021/08/10 04:41:58;;;;;;;1.08;1.00;;;;;;;14.68;88.19;100968.16;4963813;28;20058;-83
2021/08/10 04:44:25;;;;;;;1.88;0.93;;;;;;;14.81;87.78;100973.16;4962119;28;20043;-85
2021/08/10 04:46:51;;;;;;;5.18;1.25;;;;;;;14.95;87.23;100976.38;4976939;28;20042;-84
2021/08/10 04:49:18;;;;;;;5.85;1.30;;;;;;;15.06;86.79;100986.69;4965704;28;20125;-81
2021/08/10 04:51:45;;;;;;;2.42;1.23;;;;;;;15.16;86.35;100982.94;4965014;28;20046;-84
2021/08/10 04:54:16;;;;;;;4.00;0.90;;;;;;;15.22;85.92;100984.56;4977142;28;20046;-84
2021/08/10 04:56:43;;;;;;;2.70;0.90;;;;;;;15.22;85.49;100980.16;4962748;28;20861;-86
2021/08/10 04:59:10;;;;;;;1.50;1.05;;;;;;;15.23;85.45;100973.13;4975763;28;20691;-83
2021/08/10 05:01:38;;;;;;;2.15;0.77;;;;;;;15.25;85.30;100973.09;4963050;28;20054;-82
2021/08/10 05:04:05;;;;;;;1.40;1.25;;;;;;;15.27;85.08;100976.56;4960598;28;20049;-85
2021/08/10 05:06:36;;;;;;;1.95;0.80;;;;;;;15.27;85.00;100979.22;4979825;28;20047;-83
2021/08/10 05:09:06;;;;;;;2.30;0.95;;;;;;;15.27;85.17;100982.69;4977416;28;20134;-84
2021/08/10 05:11:33;;;;;;;2.33;0.90;;;;;;;15.28;85.27;100979.16;4980996;28;20066;-84
2021/08/10 05:13:59;;;;;;;1.65;1.30;;;;;;;15.29;84.88;100975.63;4976581;28;20061;-84
2021/08/10 05:16:26;;;;;;;2.00;0.98;;;;;;;15.32;85.08;100974.69;4960663;28;20045;-85
2021/08/10 05:18:56;;;;;;;2.47;0.70;;;;;;;15.36;84.50;100977.19;4980699;28;20042;-82
2021/08/10 05:21:23;;;;;;;2.65;1.17;;;;;;;15.38;84.56;100975.41;4979192;28;20042;-84
2021/08/10 05:23:49;;;;;;;2.10;0.98;;;;;;;15.42;83.99;100984.09;4980324;28;20081;-85
2021/08/10 05:26:17;;;;;;;2.25;1.45;;;;;;;15.44;83.79;100977.03;4963229;28;20162;-84
2021/08/10 05:28:44;;;;;;;4.22;0.93;;;;;;;15.44;83.74;100974.38;4971939;28;20054;-85
2021/08/10 05:31:14;;;;;;;3.22;1.20;;;;;;;15.46;83.86;100984.91;4970843;28;20517;-85
2021/08/10 05:33:41;;;;;;;2.83;1.20;;;;;;;15.46;83.83;100975.22;4965311;28;20049;-81
2021/08/10 05:36:08;;;;;;;1.20;0.93;;;;;;;15.47;83.77;100981.34;4981773;28;20054;-85
2021/08/10 05:38:37;;;;;;;2.53;0.85;;;;;;;15.48;83.85;100977.81;4983209;28;21627;-86
2021/08/10 05:41:04;;;;;;;1.73;1.10;;;;;;;15.49;84.24;100976.94;4979165;28;20405;-86
2021/08/10 05:43:34;;;;;;;1.05;0.65;;;;;;;15.49;83.66;100971.66;4980338;28;20048;-82
2021/08/10 05:46:01;;;;;;;1.77;0.90;;;;;;;15.48;83.61;100976.03;4976296;28;20156;-85
2021/08/10 05:48:28;;;;;;;2.35;1.33;;;;;;;15.47;83.91;100991.91;4962128;28;20190;-86
2021/08/10 05:50:55;;;;;;;1.10;0.70;;;;;;;15.46;84.02;100980.50;4975626;28;20233;-84
2021/08/10 05:53:22;;;;;;;2.13;1.05;;;;;;;15.48;84.50;100983.94;4962242;28;20050;-84
2021/08/10 05:55:49;;;;;;;1.77;1.08;;;;;;;15.49;84.20;100987.47;4976804;28;20058;-83
2021/08/10 05:58:15;;;;;;;1.38;1.00;;;;;;;15.50;84.33;100982.16;4962653;28;20046;-86
2021/08/10 06:00:42;;;;;;;1.08;0.85;;;;;;;15.54;84.07;100983.81;4978428;28;20051;-82
2021/08/10 06:03:12;;;;;;;0.65;0.65;;;;;;;15.59;84.07;100977.56;4962375;28;20057;-86
2021/08/10 06:05:38;;;;;;;0.80;0.80;;;;;;;15.64;83.84;100973.03;4992208;28;20073;-83
2021/08/10 06:08:05;;;;;;;1.70;0.90;;;;;;;15.69;83.78;100974.63;4961212;28;20051;-85
2021/08/10 06:10:32;;;;;;;0.90;0.80;;;;;;;15.73;83.52;100993.91;4964067;28;20428;-86
2021/08/10 06:13:00;;;;;;;0.60;0.60;;;;;;;15.76;83.63;101001.78;4972311;28;20057;-84
2021/08/10 06:15:29;;;;;;;2.45;1.20;;;;;;;15.78;83.63;101010.50;4977777;28;20101;-85
2021/08/10 06:17:56;;;;;;;1.17;1.17;;;;;;;15.79;83.45;101011.38;4983246;28;20054;-85
2021/08/10 06:20:23;;;;;;;1.27;1.20;;;;;;;15.78;83.52;101013.13;4963690;28;20038;-84
2021/08/10 06:22:50;;;;;;;1.00;1.00;;;;;;;15.75;83.72;101013.22;4964220;28;20042;-82
2021/08/10 06:25:17;;;;;;;1.50;0.98;;;;;;;15.76;84.09;101019.34;4961006;28;20053;-87
2021/08/10 06:27:44;;;;;;;2.15;1.20;;;;;;;15.76;83.86;101027.28;4977985;28;20049;-88
2021/08/10 06:30:13;;;;;;;1.75;1.58;;;;;;;15.76;83.88;101020.25;4962247;28;20050;-87
2021/08/10 06:32:39;;;;;;;4.15;0.90;;;;;;;15.74;83.94;101015.91;4949821;28;20050;-88
2021/08/10 06:35:06;;;;;;;2.40;1.13;;;;;;;15.77;83.84;101021.94;4982340;28;20046;-86
2021/08/10 06:37:33;;;;;;;2.83;1.10;;;;;;;15.76;83.92;101020.25;4980705;28;20057;-85
2021/08/10 06:40:00;;;;;;;1.70;0.82;;;;;;;15.77;84.20;101021.09;4964314;28;20148;-85
2021/08/10 06:42:27;;;;;;;1.10;0.95;;;;;;;15.75;84.49;101017.63;4963273;28;20053;-83
2021/08/10 06:44:53;;;;;;;1.58;0.77;;;;;;;15.71;85.24;101009.78;4966603;28;20085;-86
2021/08/10 06:47:20;;;;;;;2.67;1.60;;;;;;;15.69;85.46;101014.22;4964278;28;20150;-87
2021/08/10 06:49:47;;;;;;;2.85;1.13;;;;;;;15.66;85.78;101021.38;4966430;28;20137;-87
2021/08/10 06:52:14;;;;;;;1.98;1.30;;;;;;;15.63;86.09;101010.88;4965253;28;20133;-86
2021/08/10 06:54:43;;;;;;;1.95;1.50;;;;;;;15.60;86.61;101014.44;4961334;28;20469;-84
2021/08/10 06:57:10;;;;;;;3.13;1.52;;;;;;;15.57;86.86;101008.41;4972459;28;20050;-87
2021/08/10 06:59:38;;;;;;;3.92;1.55;;;;;;;15.55;87.16;101004.03;4963096;28;20046;-84
2021/08/10 07:02:06;;;;;;;3.17;1.63;;;;;;;15.54;87.14;101004.91;4978164;28;20042;-86
2021/08/10 07:04:35;;;;;;;1.50;1.38;;;;;;;15.56;87.72;100991.69;4992862;28;22213;-85
2021/08/10 07:07:02;;;;;;;1.98;1.77;;;;;;;15.58;88.32;100981.97;4980186;28;20611;-86
2021/08/10 07:09:29;;;;;;;1.35;1.25;;;;;;;15.61;88.11;100975.75;4985248;28;20046;-87
2021/08/10 07:11:55;;;;;;;1.48;1.23;;;;;;;15.64;88.35;100959.84;4978716;28;20050;-83
2021/08/10 07:14:22;;;;;;;1.77;1.15;;;;;;;15.68;88.13;100951.81;4981156;28;20123;-83
2021/08/10 07:16:49;;;;;;;1.15;1.05;;;;;;;15.75;88.08;100949.88;4978276;28;20137;-86
2021/08/10 07:19:16;;;;;;;1.60;1.13;;;;;;;15.80;88.03;100948.00;4983058;28;20039;-88
2021/08/10 07:21:44;;;;;;;4.28;1.45;;;;;;;15.85;87.87;100951.41;4980362;28;20057;-88
2021/08/10 07:24:11;;;;;;;3.95;1.63;;;;;;;15.89;88.17;100962.72;4993172;28;20070;-82
2021/08/10 07:26:37;;;;;;;1.42;1.33;;;;;;;15.97;88.19;100984.53;4979741;28;20042;-86
2021/08/10 07:29:04;;;;;;;2.78;1.30;;;;;;;16.08;87.85;101004.53;4964721;28;20054;-86
2021/08/10 07:31:32;;;;;;;1.50;1.33;;;;;;;16.18;87.60;100998.09;4976958;28;20342;-86
2021/08/10 07:33:58;;;;;;;1.75;1.63;;;;;;;16.37;87.18;100995.78;4978378;28;20038;-85
2021/08/10 07:36:25;;;;;;;4.75;1.42;;;;;;;16.66;85.86;100991.47;4959414;28;20054;-85
2021/08/10 07:38:51;;;;;;;1.38;0.93;;;;;;;17.19;84.49;100989.03;4963537;28;20403;-86
2021/08/10 07:41:18;;;;;;;5.22;1.08;;;;;;;17.55;82.14;100985.25;4961669;28;20057;-83
2021/08/10 07:43:45;;;;;;;1.60;1.50;;;;;;;17.78;81.18;100981.84;4977615;28;22863;-85
2021/08/10 07:46:17;;;;;;;3.80;1.38;;;;;;;17.88;78.46;100986.81;4990726;28;20043;-82
2021/08/10 07:48:44;;;;;;;4.00;1.20;;;;;;;17.83;79.61;100981.66;4961521;28;20054;-85
2021/08/10 07:51:11;;;;;;;1.17;1.00;;;;;;;17.86;78.08;100981.59;4963051;28;20054;-83
2021/08/10 07:53:38;;;;;;;3.03;1.45;;;;;;;17.85;77.02;100977.19;4959102;28;20567;-86
2021/08/10 07:56:07;;;;;;;2.25;1.20;;;;;;;17.98;75.53;100972.38;4963368;28;20061;-85
2021/08/10 07:58:34;;;;;;;1.92;1.58;;;;;;;18.03;76.06;100973.09;4976237;28;20104;-86
2021/08/10 08:01:01;;;;;;;1.85;1.75;;;;;;;18.02;75.31;100966.06;4984157;28;20049;-84
2021/08/10 08:03:28;;;;;;;2.45;1.58;;;;;;;17.90;75.34;100958.50;4962182;28;20057;-85
2021/08/10 08:05:55;;;;;;;3.15;1.88;;;;;;;17.86;76.27;100961.25;4976757;28;20046;-83
2021/08/10 08:08:25;;;;;;;1.90;1.50;;;;;;;18.37;75.29;100961.28;4981369;28;20053;-86
2021/08/10 08:10:51;;;;;;;7.15;1.60;;;;;;;19.23;71.60;100972.19;4977144;28;20571;-87
2021/08/10 08:13:19;;;;;;;6.30;1.95;;;;;;;20.04;68.79;100965.31;4962068;28;20168;-85
2021/08/10 08:15:46;;;;;;;2.47;2.10;;;;;;;20.64;64.33;100965.28;4959778;28;20642;-86
2021/08/10 08:18:13;;;;;;;3.70;2.00;;;;;;;20.44;62.52;100962.66;4966102;28;20046;-86
2021/08/10 08:20:40;;;;;;;2.05;1.83;;;;;;;20.44;64.03;100968.84;4962707;28;20057;-86
2021/08/10 08:23:09;;;;;;;3.90;2.20;;;;;;;20.07;62.33;100972.28;4975569;28;20683;-85
2021/08/10 08:25:35;;;;;;;3.05;2.50;;;;;;;19.75;62.82;100971.81;4977885;28;20046;-85
2021/08/10 08:28:03;;;;;;;3.97;2.45;;;;;;;19.83;61.86;100978.59;4961484;28;20054;-86
2021/08/10 08:30:32;;;;;;;2.63;2.08;;;;;;;20.41;59.59;100962.81;4978304;28;20046;-87
2021/08/10 08:32:59;;;;;;;4.20;2.78;;;;;;;20.81;59.20;100961.00;4977883;28;20059;-87
2021/08/10 08:35:25;;;;;;;4.72;3.10;;;;;;;21.37;57.20;100964.53;4976510;28;20105;-83
2021/08/10 08:38:01;;;;;;;3.28;2.67;;;;;;;21.77;57.03;100961.69;4977280;28;20051;-87
2021/08/10 08:40:28;;;;;;;3.92;2.95;;;;;;;22.30;56.01;100959.81;4976584;28;20051;-84
2021/08/10 08:42:55;;;;;;;3.70;2.97;;;;;;;23.06;53.79;100955.72;4979254;28;20058;-85
2021/08/10 08:45:24;;;;;;;3.28;2.47;;;;;;;23.25;51.69;100961.75;4963701;28;20046;-84
2021/08/10 08:47:56;;;;;;;5.97;3.08;;;;;;;23.18;51.69;100954.19;4981083;28;20069;-84
2021/08/10 08:50:25;;;;;;;3.60;2.95;;;;;;;22.35;51.75;100946.25;4996118;28;20075;-85
2021/08/10 08:52:55;;;;;;;5.88;3.00;;;;;;;22.04;53.67;100953.22;4961394;28;20133;-85
2021/08/10 08:55:22;;;;;;;5.05;3.85;;;;;;;22.68;53.10;100954.25;4963460;28;20106;-87
2021/08/10 08:57:50;;;;;;;5.85;3.83;;;;;;;23.49;49.63;100955.94;4992037;28;20038;-86
2021/08/10 09:00:20;;;;;;;4.72;3.42;;;;;;;24.47;48.63;100947.44;4979140;28;20323;-88
2021/08/10 09:02:47;;;;;;;5.13;3.50;;;;;;;25.43;42.94;100945.75;4975898;28;20106;-87
2021/08/10 09:05:15;;;;;;;5.53;4.05;;;;;;;26.34;41.65;100949.38;4974314;28;20042;-84
2021/08/10 09:07:42;;;;;;;7.32;4.78;;;;;;;26.39;40.62;100943.69;4978033;28;20053;-88
2021/08/10 09:10:22;;;;;;;4.15;3.78;;;;;;;26.53;39.69;100946.25;4974819;28;20054;-87
2021/08/10 09:12:57;;;;;;;7.95;5.28;;;;;;;26.52;37.16;100939.16;4977925;28;20109;-85
2021/08/10 09:15:44;;;;;;;6.43;5.55;;;;;;;26.19;37.83;100935.22;4973111;28;20101;-85
2021/08/10 09:18:19;;;;;;;5.68;5.07;;;;;;;26.07;37.87;100939.63;4962022;28;20076;-85
2021/08/10 09:21:07;;;;;;;7.28;4.90;;;;;;;26.62;36.36;100944.72;4974107;28;20074;-88
2021/08/10 09:23:49;;;;;;;8.13;5.60;;;;;;;26.73;36.57;100933.22;4960704;28;20516;-87
2021/08/10 09:26:42;;;;;;;6.15;5.20;;;;;;;27.26;36.91;100948.19;4977992;28;21067;-84
2021/08/10 09:29:09;;;;;;;7.40;5.53;;;;;;;28.25;35.87;100943.34;4963291;28;20038;-86
2021/08/10 09:31:47;;;;;;;8.95;5.20;;;;;;;29.05;34.03;100931.53;4962538;28;20042;-86
2021/08/10 09:34:16;;;;;;;6.32;5.25;;;;;;;28.92;34.98;100941.63;4991007;28;21432;-84
2021/08/10 09:36:44;;;;;;;5.60;4.60;;;;;;;29.49;34.36;100935.06;4979903;28;20682;-87
2021/08/10 09:39:11;;;;;;;5.40;4.85;;;;;;;30.22;32.70;100939.66;4960939;28;20494;-87
2021/08/10 09:41:39;;;;;;;5.57;4.07;;;;;;;30.74;33.05;100939.59;4961986;28;20065;-90
2021/08/10 09:44:20;;;;;;;4.45;4.05;;;;;;;31.02;32.03;100937.06;4959569;28;20070;-87
2021/08/10 09:46:53;;;;;;;3.92;3.35;;;;;;;31.11;32.56;100944.38;4962360;28;20054;-88
2021/08/10 09:49:22;;;;;;;6.97;5.03;;;;;;;30.99;32.61;100938.19;4994128;28;20081;-86
2021/08/10 09:51:52;;;;;;;4.13;3.72;;;;;;;31.18;32.04;100932.00;4964050;28;20509;-88
2021/08/10 09:54:21;;;;;;;4.40;4.00;;;;;;;30.58;32.42;100934.69;4962540;28;20046;-86
2021/08/10 09:56:55;;;;;;;4.70;4.20;;;;;;;30.44;32.31;100929.63;4976462;28;20050;-82
2021/08/10 09:59:23;;;;;;;4.03;3.70;;;;;;;30.02;32.18;100931.47;4979363;28;20077;-85
2021/08/10 10:01:59;;;;;;;4.88;4.15;;;;;;;29.57;32.21;100938.94;4974469;28;20125;-88
2021/08/10 10:04:31;;;;;;;4.00;3.70;;;;;;;28.83;33.28;100937.84;4973671;28;20104;-86
2021/08/10 10:07:10;;;;;;;4.67;4.10;;;;;;;28.39;34.25;100930.53;4987681;28;20046;-84
2021/08/10 10:09:37;;;;;;;3.45;3.17;;;;;;;27.24;36.47;100943.75;4979173;28;20286;-87
2021/08/10 10:12:06;;;;;;;3.95;3.63;;;;;;;27.43;35.31;100942.44;4981093;28;20043;-88
2021/08/10 10:14:39;;;;;;;5.72;3.45;;;;;;;28.30;35.00;100939.31;4976321;28;20135;-86
2021/08/10 10:17:17;;;;;;;3.42;3.13;;;;;;;29.32;32.84;100938.31;4981067;28;20104;-86
2021/08/10 10:19:46;;;;;;;4.63;4.00;;;;;;;29.51;32.54;100933.06;4963808;28;20082;-86
2021/08/10 10:22:21;;;;;;;3.13;2.85;;;;;;;30.25;31.85;100925.88;4979227;28;20102;-88
2021/08/10 10:24:55;;;;;;;4.10;3.55;;;;;;;31.08;30.88;100919.44;4994701;28;20062;-87
2021/08/10 10:27:23;;;;;;;3.85;3.38;;;;;;;31.00;29.87;100918.28;4997575;28;20058;-85
2021/08/10 10:30:01;;;;;;;5.00;3.67;;;;;;;31.36;30.17;100909.63;4981613;28;20508;-87
2021/08/10 10:32:28;;;;;;;4.47;3.15;;;;;;;31.73;29.06;100910.75;4976654;28;20154;-86
2021/08/10 10:34:57;;;;;;;4.43;3.53;;;;;;;31.48;29.64;100903.06;4965417;28;20061;-85
2021/08/10 10:37:31;;;;;;;3.60;3.30;;;;;;;30.07;31.38;100908.59;4974818;28;20050;-87
2021/08/10 10:40:02;;;;;;;3.47;3.17;;;;;;;29.11;32.98;100903.22;4976133;28;20592;-83
2021/08/10 10:42:30;;;;;;;5.30;4.32;;;;;;;29.43;32.48;100911.31;4964150;28;20058;-85
2021/08/10 10:44:56;;;;;;;4.20;3.03;;;;;;;29.37;31.74;100901.91;4990163;28;20050;-86
2021/08/10 10:47:23;;;;;;;3.03;2.80;;;;;;;27.93;33.87;100907.22;4965389;28;20058;-86
2021/08/10 10:49:59;;;;;;;4.10;3.63;;;;;;;28.38;32.74;100899.19;4977745;28;20046;-87
2021/08/10 10:52:32;;;;;;;3.38;2.90;;;;;;;29.04;32.37;100895.63;4980181;28;20049;-86
2021/08/10 10:55:03;;;;;;;4.35;3.00;;;;;;;29.18;32.29;100888.25;4995589;28;20058;-84
2021/08/10 10:57:30;;;;;;;3.72;3.00;;;;;;;29.08;32.10;100901.63;4966214;28;20065;-86
2021/08/10 11:00:22;;;;;;;4.50;3.55;;;;;;;28.68;33.05;100899.53;4999464;28;20085;-87
2021/08/10 11:03:11;;;;;;;3.10;2.88;;;;;;;28.63;33.19;100891.81;4994037;28;20054;-88
2021/08/10 11:05:38;;;;;;;3.17;2.92;;;;;;;27.93;33.93;100899.16;4965878;28;20586;-89
2021/08/10 11:08:38;;;;;;;2.28;2.17;;;;;;;27.41;35.14;100906.72;4961877;28;20046;-89
2021/08/10 11:11:05;;;;;;;2.70;2.50;;;;;;;28.23;33.29;100889.66;4966611;28;20059;-87
2021/08/10 11:13:38;;;;;;;2.58;2.45;;;;;;;29.11;31.47;100887.03;4962616;28;20223;-88
2021/08/10 11:16:05;;;;;;;;;;;;;;;30.35;29.83;100893.50;4991203;28;21083;-87
2021/08/10 11:18:33;;;;;;;4.15;2.97;;;;;;;30.73;28.91;100891.06;4965636;28;19929;-86
2021/08/10 11:21:00;;;;;;;3.75;2.75;;;;;;;31.10;28.08;100895.84;4979852;28;20053;-87
2021/08/10 11:23:26;;;;;;;2.10;2.00;;;;;;;31.02;28.30;100897.34;4981180;28;20089;-86
2021/08/10 11:26:14;;;;;;;3.15;2.85;;;;;;;29.48;30.05;100894.75;4977062;28;20052;-85
2021/08/10 11:28:49;;;;;;;3.42;3.13;;;;;;;27.97;32.87;100903.31;4979948;28;20039;-86
2021/08/10 11:31:52;;;;;;;2.70;2.50;;;;;;;26.82;35.34;100902.16;4964119;28;20077;-84
2021/08/10 11:34:37;;;;;;;2.55;2.25;;;;;;;25.87;37.21;100892.69;5002196;28;20053;-86
2021/08/10 11:37:28;;;;;;;2.70;2.50;;;;;;;25.13;38.90;100897.69;4981621;28;20053;-83
2021/08/10 11:40:08;;;;;;;2.78;2.58;;;;;;;24.97;39.37;100887.16;4969828;28;20050;-86
2021/08/10 11:42:36;;;;;;;3.95;2.88;;;;;;;25.64;38.06;100896.97;4981242;28;20086;-85